Time;durP1;ratioP1;P1;durP2;ratioP2;P2;SDS_P1;SDS_P2;PMS_P1;PMS_P2;Temp;Humidity;BMP_temperature;BMP_pressure;BME280_temperature;BME280_humidity;BME280_pressure;Samples;Min_cycle;Max_cycle;Signal;HPM_P1;HPM_P2
2021/11/25 00:02:16;;;;;;;32.23;18.80;;;3.30;99.90;;;;;;5028456;28;20215;-78
2021/11/25 00:04:41;;;;;;;29.70;19.30;;;3.30;99.90;;;;;;5026532;28;20181;-78
2021/11/25 00:07:07;;;;;;;30.67;20.27;;;3.20;99.90;;;;;;5022574;28;20246;-78
2021/11/25 00:09:33;;;;;;;31.60;19.63;;;3.20;99.90;;;;;;5022234;28;20175;-78
2021/11/25 00:11:58;;;;;;;34.50;20.37;;;3.20;99.90;;;;;;5022417;28;20593;-78
2021/11/25 00:14:24;;;;;;;32.83;20.67;;;3.30;99.90;;;;;;5021838;28;20180;-78
2021/11/25 00:16:50;;;;;;;32.17;21.23;;;3.30;99.90;;;;;;5022463;28;20250;-78
2021/11/25 00:19:16;;;;;;;35.07;21.70;;;3.30;99.90;;;;;;5021501;28;20538;-78
2021/11/25 00:21:42;;;;;;;38.90;23.07;;;3.30;99.90;;;;;;5023317;28;20282;-78
2021/11/25 00:24:08;;;;;;;32.83;20.47;;;3.30;99.90;;;;;;5021695;28;20180;-78
2021/11/25 00:26:35;;;;;;;31.03;19.60;;;3.30;99.90;;;;;;5021611;28;20232;-78
2021/11/25 00:29:01;;;;;;;32.77;19.60;;;3.40;99.90;;;;;;5022727;28;20176;-78
2021/11/25 00:31:27;;;;;;;33.70;20.27;;;3.50;99.90;;;;;;5020872;28;20195;-78
2021/11/25 00:33:53;;;;;;;34.33;20.70;;;3.30;99.90;;;;;;5021689;28;20188;-78
2021/11/25 00:36:19;;;;;;;32.03;20.23;;;3.50;99.90;;;;;;5021771;28;20205;-78
2021/11/25 00:38:46;;;;;;;31.93;19.97;;;3.80;99.90;;;;;;5022201;28;20256;-78
2021/11/25 00:41:12;;;;;;;33.87;20.87;;;3.30;99.90;;;;;;5021058;28;20349;-78
2021/11/25 00:43:38;;;;;;;29.80;19.50;;;3.30;99.90;;;;;;5020720;28;20239;-78
2021/11/25 00:46:04;;;;;;;34.87;20.43;;;3.30;99.90;;;;;;5020565;28;20289;-78
2021/11/25 00:48:30;;;;;;;34.43;20.57;;;3.40;99.90;;;;;;5020433;28;20181;-78
2021/11/25 00:50:55;;;;;;;35.03;21.70;;;3.40;99.90;;;;;;5021017;28;20630;-78
2021/11/25 00:53:21;;;;;;;32.70;20.10;;;3.30;99.90;;;;;;5021521;28;20190;-78
2021/11/25 00:55:47;;;;;;;34.57;20.07;;;3.30;99.90;;;;;;5020359;28;20203;-78
2021/11/25 00:58:13;;;;;;;34.17;20.97;;;3.30;99.90;;;;;;5021032;28;20187;-77
2021/11/25 01:00:39;;;;;;;39.20;22.53;;;3.30;99.90;;;;;;5012761;28;20199;-77
2021/11/25 01:03:05;;;;;;;39.70;23.37;;;3.30;99.90;;;;;;5008857;28;20184;-78
2021/11/25 01:05:30;;;;;;;38.37;22.20;;;3.10;99.90;;;;;;4993780;28;20197;-77
2021/11/25 01:07:56;;;;;;;40.27;22.77;;;3.10;99.90;;;;;;4994437;28;20172;-78
2021/11/25 01:10:23;;;;;;;41.67;22.73;;;3.10;99.90;;;;;;4996275;28;20184;-77
2021/11/25 01:12:51;;;;;;;37.90;21.73;;;3.10;99.90;;;;;;4998023;28;20682;-79
2021/11/25 01:15:18;;;;;;;34.40;20.53;;;3.20;99.90;;;;;;5000031;28;20198;-79
2021/11/25 01:17:45;;;;;;;34.93;21.57;;;3.30;99.90;;;;;;5000936;28;20203;-79
2021/11/25 01:20:14;;;;;;;34.77;20.73;;;3.30;99.90;;;;;;4999565;28;20717;-78
2021/11/25 01:22:40;;;;;;;30.13;19.67;;;3.30;99.90;;;;;;5000443;28;20183;-79
2021/11/25 01:25:07;;;;;;;30.83;19.43;;;3.30;99.90;;;;;;5019199;28;20172;-79
2021/11/25 01:27:33;;;;;;;35.97;20.80;;;3.30;99.90;;;;;;5006095;28;20660;-79
2021/11/25 01:29:58;;;;;;;35.57;20.87;;;3.30;99.90;;;;;;5000405;28;20260;-79
2021/11/25 01:32:24;;;;;;;34.03;20.37;;;3.40;99.90;;;;;;5000784;28;20182;-79
2021/11/25 01:34:50;;;;;;;34.83;21.13;;;3.40;99.90;;;;;;5001043;28;20176;-79
2021/11/25 01:37:15;;;;;;;36.70;22.37;;;3.40;99.90;;;;;;5009742;28;20205;-79
2021/11/25 01:39:41;;;;;;;37.70;22.20;;;3.30;99.90;;;;;;5005120;28;20251;-79
2021/11/25 01:42:07;;;;;;;35.83;21.40;;;3.30;99.90;;;;;;5015709;28;20271;-79
2021/11/25 01:44:33;;;;;;;37.63;22.87;;;3.30;99.90;;;;;;5020033;28;20175;-79
2021/11/25 01:47:04;;;;;;;38.73;22.37;;;3.20;99.90;;;;;;5019762;28;20265;-79
2021/11/25 01:49:31;;;;;;;37.30;21.43;;;3.20;99.90;;;;;;5018952;28;20199;-79
2021/11/25 01:51:57;;;;;;;38.97;22.57;;;3.20;99.90;;;;;;5013158;28;20258;-79
2021/11/25 01:54:24;;;;;;;34.70;21.73;;;3.10;99.90;;;;;;5009611;28;20176;-79
2021/11/25 01:56:49;;;;;;;38.43;23.37;;;3.20;99.90;;;;;;4999791;28;20207;-79
2021/11/25 01:59:15;;;;;;;34.03;21.00;;;3.30;99.90;;;;;;4999531;28;20184;-79
2021/11/25 02:01:41;;;;;;;34.63;21.07;;;3.20;99.90;;;;;;4999727;28;20208;-79
2021/11/25 02:04:07;;;;;;;37.60;23.37;;;3.30;99.90;;;;;;4999921;28;20172;-79
2021/11/25 02:06:33;;;;;;;36.63;20.93;;;3.50;99.90;;;;;;5000589;28;20195;-79
2021/11/25 02:09:01;;;;;;;34.83;21.27;;;3.30;99.90;;;;;;4999405;28;20179;-79
2021/11/25 02:11:27;;;;;;;32.90;21.07;;;3.30;99.90;;;;;;5006609;28;20210;-79
2021/11/25 02:13:53;;;;;;;35.60;21.03;;;3.30;99.90;;;;;;5019386;28;20181;-79
2021/11/25 02:16:19;;;;;;;35.70;21.60;;;3.30;99.90;;;;;;5000901;28;20698;-79
2021/11/25 02:18:45;;;;;;;36.83;22.07;;;3.30;99.90;;;;;;4999810;28;20648;-79
2021/11/25 02:21:11;;;;;;;36.17;21.87;;;3.30;99.90;;;;;;4999218;28;20620;-79
2021/11/25 02:23:36;;;;;;;32.37;20.17;;;3.30;99.90;;;;;;4998011;28;20657;-79
2021/11/25 02:26:02;;;;;;;30.97;20.03;;;3.30;99.90;;;;;;4997920;28;20323;-79
2021/11/25 02:28:34;;;;;;;34.90;21.80;;;3.30;99.90;;;;;;4999558;28;20210;-79
2021/11/25 02:31:00;;;;;;;35.60;21.80;;;3.60;99.90;;;;;;4998293;28;20181;-79
2021/11/25 02:33:26;;;;;;;34.43;21.03;;;3.30;99.90;;;;;;5004951;28;20180;-79
2021/11/25 02:35:52;;;;;;;34.47;21.30;;;3.30;99.90;;;;;;5018650;28;20798;-79
2021/11/25 02:38:18;;;;;;;37.07;22.80;;;3.50;99.90;;;;;;5001012;28;20250;-79
2021/11/25 02:40:50;;;;;;;43.73;23.83;;;3.30;99.90;;;;;;5003386;28;20690;-79
2021/11/25 02:43:20;;;;;;;36.20;21.97;;;3.30;99.90;;;;;;5019536;28;20175;-79
2021/11/25 02:45:48;;;;;;;33.20;21.40;;;3.30;99.90;;;;;;5018912;28;20342;-79
2021/11/25 02:48:16;;;;;;;38.00;22.67;;;3.20;99.90;;;;;;5017610;28;20184;-79
2021/11/25 02:50:43;;;;;;;36.53;22.30;;;3.30;99.90;;;;;;5017830;28;20180;-79
2021/11/25 02:53:09;;;;;;;35.17;22.03;;;3.20;99.90;;;;;;5019233;28;20189;-79
2021/11/25 02:55:35;;;;;;;40.37;22.80;;;3.10;99.90;;;;;;5018895;28;20235;-79
2021/11/25 02:58:01;;;;;;;37.63;21.77;;;3.10;99.90;;;;;;5019009;28;20183;-79
2021/11/25 03:00:26;;;;;;;33.33;20.70;;;3.20;99.90;;;;;;5017320;28;20288;-79
2021/11/25 03:02:56;;;;;;;34.77;21.03;;;3.10;99.90;;;;;;5018386;28;20201;-79
2021/11/25 03:05:21;;;;;;;38.53;23.50;;;3.10;99.90;;;;;;5015811;28;20199;-79
2021/11/25 03:07:47;;;;;;;38.10;23.20;;;3.10;99.90;;;;;;5013317;28;20205;-79
2021/11/25 03:10:13;;;;;;;44.17;24.97;;;3.20;99.90;;;;;;4998464;28;20183;-79
2021/11/25 03:12:38;;;;;;;40.03;22.77;;;3.20;99.90;;;;;;5002719;28;20181;-79
2021/11/25 03:15:04;;;;;;;36.77;22.83;;;3.10;99.90;;;;;;5000991;28;20719;-79
2021/11/25 03:17:30;;;;;;;41.03;22.47;;;3.10;99.90;;;;;;5002957;28;20175;-79
2021/11/25 03:19:56;;;;;;;37.13;22.77;;;3.20;99.90;;;;;;5002449;28;20176;-79
2021/11/25 03:22:22;;;;;;;38.20;22.47;;;3.20;99.90;;;;;;5000993;28;20228;-79
2021/11/25 03:24:47;;;;;;;36.77;22.87;;;3.20;99.90;;;;;;5002154;28;20180;-79
2021/11/25 03:27:13;;;;;;;36.50;21.20;;;3.20;99.90;;;;;;5024991;28;20207;-79
2021/11/25 03:29:39;;;;;;;32.53;20.97;;;3.20;99.90;;;;;;5029008;28;20188;-78
2021/11/25 03:32:05;;;;;;;34.43;20.73;;;3.30;99.90;;;;;;5026586;28;20216;-79
2021/11/25 03:34:31;;;;;;;33.77;21.07;;;3.30;99.90;;;;;;5019765;28;20196;-79
2021/11/25 03:36:56;;;;;;;36.03;20.97;;;3.30;99.90;;;;;;5002285;28;20216;-78
2021/11/25 03:39:22;;;;;;;32.67;21.43;;;3.40;99.90;;;;;;5003451;28;20194;-79
2021/11/25 03:41:48;;;;;;;39.13;22.43;;;3.40;99.90;;;;;;5015157;28;20571;-79
2021/11/25 03:44:14;;;;;;;34.60;22.00;;;3.40;99.90;;;;;;5021543;28;20186;-79
2021/11/25 03:46:39;;;;;;;32.67;20.80;;;3.40;99.90;;;;;;5021125;28;20220;-79
2021/11/25 03:49:05;;;;;;;37.50;22.83;;;3.40;99.90;;;;;;5022755;28;20176;-79
2021/11/25 03:51:31;;;;;;;36.80;22.60;;;3.40;99.90;;;;;;5020605;28;20194;-79
2021/11/25 03:53:56;;;;;;;37.60;22.73;;;3.40;99.90;;;;;;5022040;28;20561;-79
2021/11/25 03:56:22;;;;;;;39.23;23.63;;;3.40;99.90;;;;;;5020590;28;20202;-79
2021/11/25 03:58:48;;;;;;;35.83;21.67;;;3.20;99.90;;;;;;5017183;28;20242;-78
2021/11/25 04:01:16;;;;;;;37.80;22.73;;;3.20;99.90;;;;;;5014103;28;20215;-79
2021/11/25 04:03:42;;;;;;;39.50;23.83;;;3.30;99.90;;;;;;5002764;28;20349;-79
2021/11/25 04:06:08;;;;;;;38.63;22.60;;;3.20;99.90;;;;;;5017521;28;20203;-79
2021/11/25 04:08:34;;;;;;;34.77;21.50;;;3.30;99.90;;;;;;5011934;28;20202;-78
2021/11/25 04:11:00;;;;;;;36.37;22.07;;;3.30;99.90;;;;;;5000402;28;20193;-78
2021/11/25 04:13:26;;;;;;;35.37;22.37;;;3.30;99.90;;;;;;5003180;28;20222;-79
2021/11/25 04:15:51;;;;;;;37.80;22.17;;;3.30;99.90;;;;;;5018810;28;20292;-79
2021/11/25 04:18:17;;;;;;;36.57;22.37;;;3.30;99.90;;;;;;5015063;28;20180;-79
2021/11/25 04:20:43;;;;;;;38.63;23.13;;;3.40;99.90;;;;;;5016113;28;20747;-79
2021/11/25 04:23:09;;;;;;;41.83;24.00;;;3.30;99.90;;;;;;5002665;28;20276;-79
2021/11/25 04:25:35;;;;;;;39.07;23.70;;;3.20;99.90;;;;;;5001776;28;20205;-78
2021/11/25 04:28:02;;;;;;;39.23;23.47;;;3.10;99.90;;;;;;5003965;28;20540;-79
2021/11/25 04:35:28;;;;;;;41.77;24.40;;;3.10;99.90;;;;;;5002266;28;20171;-79
2021/11/25 04:36:00;;;;;;;40.77;23.13;;;3.30;99.90;;;;;;5002787;28;20215;-79
2021/11/25 04:38:26;;;;;;;39.07;22.67;;;3.10;99.90;;;;;;5000312;28;20177;-79
2021/11/25 04:40:59;;;;;;;40.30;23.77;;;3.50;99.90;;;;;;5007636;28;20206;-78
2021/11/25 04:43:26;;;;;;;39.70;23.53;;;3.10;99.90;;;;;;5018948;28;20254;-79
2021/11/25 04:45:53;;;;;;;37.87;22.73;;;3.00;99.90;;;;;;5019731;28;20717;-79
2021/11/25 04:48:21;;;;;;;43.47;24.70;;;3.10;99.90;;;;;;5019326;28;20179;-79
2021/11/25 04:50:47;;;;;;;40.03;24.40;;;3.20;99.90;;;;;;5019929;28;20199;-79
2021/11/25 04:53:13;;;;;;;44.13;24.67;;;3.30;99.90;;;;;;5019692;28;20188;-79
2021/11/25 04:55:41;;;;;;;41.73;25.27;;;3.40;99.90;;;;;;5018272;28;20235;-77
2021/11/25 04:58:07;;;;;;;46.07;24.93;;;3.20;99.90;;;;;;5022559;28;20605;-78
2021/11/25 05:00:34;;;;;;;48.10;26.63;;;3.10;99.90;;;;;;5017922;28;20207;-78
2021/11/25 05:03:00;;;;;;;45.73;25.60;;;3.00;99.90;;;;;;5015319;28;20171;-78
2021/11/25 05:05:26;;;;;;;50.10;27.70;;;3.00;99.90;;;;;;5017755;28;20208;-78
2021/11/25 05:07:51;;;;;;;50.60;27.43;;;2.90;99.90;;;;;;5015740;28;20175;-78
2021/11/25 05:10:18;;;;;;;55.83;29.47;;;2.90;99.90;;;;;;4998742;28;20627;-78
2021/11/25 05:12:44;;;;;;;68.93;30.83;;;2.90;99.90;;;;;;5010725;28;20187;-78
2021/11/25 05:15:12;;;;;;;71.03;33.07;;;2.90;99.90;;;;;;5009134;28;20237;-78
2021/11/25 05:17:38;;;;;;;74.70;34.60;;;2.90;99.90;;;;;;5013580;28;20266;-78
2021/11/25 05:20:06;;;;;;;63.63;31.10;;;2.80;99.90;;;;;;5009883;28;20176;-78
2021/11/25 05:22:32;;;;;;;56.10;29.07;;;2.80;99.90;;;;;;5006556;28;20206;-78
2021/11/25 05:24:58;;;;;;;60.63;31.27;;;3.00;99.90;;;;;;5017699;28;20226;-78
2021/11/25 05:27:24;;;;;;;61.10;30.40;;;2.80;99.90;;;;;;5016452;28;20211;-78
2021/11/25 05:29:49;;;;;;;56.47;28.80;;;2.80;99.90;;;;;;5016438;28;20208;-78
2021/11/25 05:32:16;;;;;;;68.37;31.83;;;2.90;99.90;;;;;;5013383;28;20184;-78
2021/11/25 05:34:45;;;;;;;61.93;30.17;;;2.70;99.90;;;;;;5016473;28;20642;-78
2021/11/25 05:37:16;;;;;;;68.67;32.10;;;2.70;99.90;;;;;;5017100;28;20204;-78
2021/11/25 05:39:42;;;;;;;67.13;32.07;;;2.70;99.90;;;;;;5017722;28;20180;-78
2021/11/25 05:42:08;;;;;;;68.47;31.03;;;2.60;99.90;;;;;;5012947;28;20293;-78
2021/11/25 05:44:34;;;;;;;83.27;37.60;;;2.70;99.90;;;;;;4997670;28;20179;-78
2021/11/25 05:47:01;;;;;;;80.33;37.97;;;2.70;99.90;;;;;;5030770;23;20690;-78
2021/11/25 05:49:27;;;;;;;111.90;50.40;;;2.70;99.90;;;;;;5015010;28;20309;-80
2021/11/25 05:51:52;;;;;;;82.43;37.23;;;3.60;99.90;;;;;;5014101;28;20713;-77
2021/11/25 05:54:18;;;;;;;81.93;36.20;;;2.70;99.90;;;;;;5014471;28;20185;-77
2021/11/25 05:56:44;;;;;;;80.33;36.33;;;2.70;99.90;;;;;;5005881;28;20215;-78
2021/11/25 05:59:09;;;;;;;85.47;37.27;;;2.70;99.90;;;;;;4989018;28;20656;-78
2021/11/25 06:01:35;;;;;;;91.37;38.93;;;2.70;99.90;;;;;;4981671;28;20207;-79
2021/11/25 06:04:01;;;;;;;89.17;38.27;;;3.30;99.90;;;;;;4991809;28;20662;-78
2021/11/25 06:06:26;;;;;;;80.97;37.63;;;2.60;99.90;;;;;;4980490;28;20216;-79
2021/11/25 06:08:52;;;;;;;87.30;38.33;;;2.70;99.90;;;;;;4995199;28;20171;-79
2021/11/25 06:11:18;;;;;;;84.57;36.40;;;2.70;99.90;;;;;;4996393;28;20190;-79
2021/11/25 06:13:44;;;;;;;81.13;36.83;;;2.70;99.90;;;;;;4995191;28;20175;-79
2021/11/25 06:16:10;;;;;;;86.60;38.07;;;2.90;99.90;;;;;;4994679;28;20223;-79
2021/11/25 06:18:36;;;;;;;82.23;37.00;;;2.80;99.90;;;;;;4994448;28;20655;-79
2021/11/25 06:21:03;;;;;;;82.13;36.87;;;3.20;99.90;;;;;;4995194;28;20669;-79
2021/11/25 06:23:28;;;;;;;80.40;36.70;;;2.70;99.90;;;;;;4994871;28;20226;-79
2021/11/25 06:25:54;;;;;;;77.63;35.50;;;2.70;99.90;;;;;;4995094;28;20172;-79
2021/11/25 06:28:19;;;;;;;81.40;37.57;;;2.70;99.90;;;;;;4995276;28;20187;-78
2021/11/25 06:30:45;;;;;;;82.60;36.43;;;2.70;99.90;;;;;;4994694;28;20185;-79
2021/11/25 06:33:11;;;;;;;79.97;37.80;;;2.60;99.90;;;;;;4994681;28;20179;-79
2021/11/25 06:35:38;;;;;;;77.53;37.40;;;2.60;99.90;;;;;;4983178;28;20663;-79
2021/11/25 06:38:03;;;;;;;84.03;36.90;;;2.60;99.90;;;;;;4988860;28;20262;-78
2021/11/25 06:40:33;;;;;;;79.63;37.03;;;2.60;99.90;;;;;;5014451;28;20177;-79
2021/11/25 06:43:01;;;;;;;88.47;38.63;;;2.60;99.90;;;;;;4995514;28;20686;-79
2021/11/25 06:45:27;;;;;;;90.93;40.63;;;2.60;99.90;;;;;;4994170;28;20179;-78
2021/11/25 06:47:54;;;;;;;90.30;39.87;;;2.50;99.90;;;;;;4998724;28;20218;-78
2021/11/25 06:50:21;;;;;;;88.40;41.60;;;2.50;99.90;;;;;;4999074;28;20200;-79
2021/11/25 06:52:47;;;;;;;92.30;39.53;;;2.60;99.90;;;;;;4998593;28;20172;-78
2021/11/25 06:55:15;;;;;;;96.97;42.10;;;2.90;99.90;;;;;;4998474;28;20595;-78
2021/11/25 06:57:41;;;;;;;82.83;36.73;;;2.60;99.90;;;;;;4998441;28;20199;-78
2021/11/25 07:00:09;;;;;;;77.60;36.53;;;2.70;99.90;;;;;;4998403;28;20226;-78
2021/11/25 07:02:36;;;;;;;68.97;32.97;;;2.60;99.90;;;;;;4998154;28;20195;-78
2021/11/25 07:05:04;;;;;;;74.00;34.33;;;2.60;99.90;;;;;;4998725;28;20639;-78
2021/11/25 07:07:31;;;;;;;71.70;32.97;;;2.60;99.90;;;;;;4997742;28;20196;-78
2021/11/25 07:09:56;;;;;;;68.03;31.87;;;2.60;99.90;;;;;;4998092;28;20721;-78
2021/11/25 07:12:22;;;;;;;59.60;29.87;;;2.60;99.90;;;;;;4996895;28;20188;-78
2021/11/25 07:14:48;;;;;;;56.73;28.00;;;2.70;99.90;;;;;;4996121;28;20212;-78
2021/11/25 07:17:13;;;;;;;61.10;29.87;;;2.60;99.90;;;;;;4989364;28;20199;-77
2021/11/25 07:19:39;;;;;;;58.30;29.03;;;2.50;99.90;;;;;;4997450;28;20183;-78
2021/11/25 07:22:05;;;;;;;63.33;30.63;;;2.50;99.90;;;;;;4999372;28;20208;-78
2021/11/25 07:24:30;;;;;;;61.87;30.07;;;2.40;99.90;;;;;;4997694;28;20187;-78
2021/11/25 07:26:56;;;;;;;64.57;29.30;;;2.40;99.90;;;;;;4985546;28;20191;-78
2021/11/25 07:29:23;;;;;;;64.90;31.03;;;2.60;99.90;;;;;;4998359;28;20176;-78
2021/11/25 07:31:49;;;;;;;59.30;29.60;;;3.20;99.90;;;;;;4997706;28;20184;-79
2021/11/25 07:34:14;;;;;;;56.17;28.27;;;2.80;99.90;;;;;;4998398;28;20548;-78
2021/11/25 07:36:40;;;;;;;54.47;27.37;;;3.30;99.90;;;;;;4996040;28;20699;-78
2021/11/25 07:39:06;;;;;;;57.50;28.37;;;2.40;99.90;;;;;;5015004;28;20185;-78
2021/11/25 07:41:32;;;;;;;59.90;29.63;;;2.40;99.90;;;;;;5003087;28;20266;-78
2021/11/25 07:43:58;;;;;;;65.20;30.63;;;2.40;99.90;;;;;;4996865;28;20198;-78
2021/11/25 07:46:24;;;;;;;57.00;28.90;;;2.30;99.90;;;;;;4996716;28;20661;-78
2021/11/25 07:48:50;;;;;;;59.13;30.07;;;2.30;99.90;;;;;;4997973;28;20179;-78
2021/11/25 07:51:16;;;;;;;67.70;30.20;;;2.30;99.90;;;;;;4998064;28;20646;-78
2021/11/25 07:53:42;;;;;;;63.23;29.70;;;2.20;99.90;;;;;;5000652;28;20223;-78
2021/11/25 07:56:08;;;;;;;73.93;33.60;;;2.20;99.90;;;;;;4997174;28;20215;-78
2021/11/25 07:58:34;;;;;;;66.00;31.93;;;2.20;99.90;;;;;;4997371;28;20198;-78
2021/11/25 08:01:00;;;;;;;62.40;31.03;;;2.20;99.90;;;;;;4996097;28;20290;-78
2021/11/25 08:03:25;;;;;;;71.57;34.53;;;2.30;99.90;;;;;;4996345;28;20189;-79
2021/11/25 08:05:53;;;;;;;77.83;34.57;;;2.30;99.90;;;;;;5004411;28;20180;-79
2021/11/25 08:08:19;;;;;;;83.73;34.80;;;2.30;99.90;;;;;;5000360;28;20670;-79
2021/11/25 08:10:45;;;;;;;80.07;34.47;;;2.40;99.90;;;;;;5003965;28;20187;-79
2021/11/25 08:13:11;;;;;;;73.40;34.13;;;2.30;99.90;;;;;;4998594;28;20176;-79
2021/11/25 08:15:36;;;;;;;83.07;37.27;;;2.30;99.90;;;;;;5000495;28;20188;-77
2021/11/25 08:18:03;;;;;;;81.60;38.50;;;2.30;99.90;;;;;;4998170;28;20192;-76
2021/11/25 08:20:30;;;;;;;80.87;37.10;;;2.30;99.90;;;;;;4996818;28;20183;-77
2021/11/25 08:22:56;;;;;;;75.87;34.47;;;2.30;99.90;;;;;;4996076;28;20180;-76
2021/11/25 08:25:24;;;;;;;64.60;32.67;;;2.30;99.90;;;;;;4995916;28;20180;-77
2021/11/25 08:27:54;;;;;;;114.83;50.37;;;2.40;99.90;;;;;;4995397;28;20667;-78
2021/11/25 08:30:21;;;;;;;79.33;35.87;;;2.30;99.90;;;;;;4994008;28;20179;-76
2021/11/25 08:32:47;;;;;;;145.07;57.40;;;2.30;99.90;;;;;;4995173;28;20164;-77
2021/11/25 08:35:13;;;;;;;69.03;33.13;;;2.30;99.90;;;;;;4995438;28;20176;-76
2021/11/25 08:37:41;;;;;;;71.17;31.47;;;2.30;99.90;;;;;;4995741;28;20196;-78
2021/11/25 08:40:09;;;;;;;67.17;31.30;;;2.40;99.90;;;;;;4994992;28;20174;-78
2021/11/25 08:42:35;;;;;;;70.13;33.07;;;2.30;99.90;;;;;;4997145;28;20299;-76
2021/11/25 08:45:01;;;;;;;65.87;30.83;;;2.30;99.90;;;;;;4994907;28;20266;-76
2021/11/25 08:47:27;;;;;;;66.10;31.53;;;2.30;99.90;;;;;;4995317;28;20627;-76
2021/11/25 08:49:53;;;;;;;66.90;31.83;;;2.80;99.90;;;;;;4993731;28;20199;-76
2021/11/25 08:52:19;;;;;;;67.27;32.03;;;2.40;99.90;;;;;;4995645;28;20513;-77
2021/11/25 08:54:45;;;;;;;65.67;32.27;;;2.50;99.90;;;;;;4994725;28;20255;-76
2021/11/25 08:57:11;;;;;;;66.40;32.87;;;2.60;99.90;;;;;;4994935;28;20215;-80
2021/11/25 08:59:37;;;;;;;75.00;35.40;;;2.60;99.90;;;;;;4983214;28;20173;-79
2021/11/25 09:02:02;;;;;;;75.40;34.87;;;2.60;99.90;;;;;;5016584;28;20195;-79
2021/11/25 09:04:30;;;;;;;84.97;36.90;;;2.70;99.90;;;;;;5004441;28;20200;-76
2021/11/25 09:06:56;;;;;;;77.63;35.97;;;2.60;99.90;;;;;;4997033;28;20185;-76
2021/11/25 09:09:23;;;;;;;81.93;36.03;;;3.00;99.90;;;;;;4993280;28;20184;-76
2021/11/25 09:11:49;;;;;;;78.87;36.67;;;2.60;99.90;;;;;;4997456;28;20241;-77
2021/11/25 09:14:15;;;;;;;81.30;35.77;;;2.60;99.90;;;;;;4995679;28;20655;-76
2021/11/25 09:16:41;;;;;;;82.63;37.67;;;2.50;99.90;;;;;;4995702;28;20255;-79
2021/11/25 09:19:07;;;;;;;82.47;37.50;;;2.60;99.90;;;;;;4992948;28;20191;-76
2021/11/25 09:21:33;;;;;;;78.67;35.67;;;2.50;99.90;;;;;;4994201;28;20203;-76
2021/11/25 09:24:01;;;;;;;87.10;36.10;;;2.60;99.90;;;;;;4994555;28;20215;-77
2021/11/25 09:26:27;;;;;;;78.43;35.10;;;2.60;99.90;;;;;;4992988;28;20224;-77
2021/11/25 09:28:58;;;;;;;72.97;33.87;;;2.60;99.90;;;;;;4994077;28;20181;-78
2021/11/25 09:31:29;;;;;;;79.77;35.17;;;2.60;99.90;;;;;;4994297;28;20208;-76
2021/11/25 09:33:58;;;;;;;74.00;33.93;;;2.60;99.90;;;;;;4994069;28;20178;-77
2021/11/25 09:36:25;;;;;;;82.07;37.33;;;2.60;99.90;;;;;;4993973;28;20251;-77
2021/11/25 09:38:53;;;;;;;88.03;38.27;;;2.70;99.90;;;;;;4992291;28;20596;-76
2021/11/25 09:41:19;;;;;;;86.27;38.33;;;2.70;99.90;;;;;;4993240;28;20575;-77
2021/11/25 09:43:45;;;;;;;89.33;38.13;;;2.80;99.90;;;;;;4993910;28;20180;-76
2021/11/25 09:46:11;;;;;;;83.50;38.40;;;3.20;99.90;;;;;;4993823;28;20196;-77
2021/11/25 09:48:38;;;;;;;78.30;36.77;;;2.80;99.90;;;;;;4994196;28;20174;-78
2021/11/25 09:51:06;;;;;;;82.40;37.57;;;2.80;99.90;;;;;;4992421;28;20175;-76
2021/11/25 09:53:33;;;;;;;83.87;37.57;;;2.80;99.90;;;;;;4992650;28;20266;-77
2021/11/25 09:56:00;;;;;;;79.20;36.93;;;2.80;99.90;;;;;;4993524;28;20179;-76
2021/11/25 09:58:29;;;;;;;76.97;36.37;;;2.90;99.90;;;;;;4996412;28;20203;-79
2021/11/25 10:01:02;;;;;;;76.50;35.80;;;2.90;99.90;;;;;;4993632;28;20224;-77
2021/11/25 10:03:28;;;;;;;68.53;33.10;;;3.10;99.90;;;;;;4992751;28;20713;-77
2021/11/25 10:05:57;;;;;;;60.07;31.23;;;3.00;99.90;;;;;;4991967;28;20176;-77
2021/11/25 10:08:34;;;;;;;59.20;30.00;;;2.90;99.90;;;;;;4999225;28;20537;-79
2021/11/25 10:11:10;;;;;;;63.60;29.93;;;2.90;99.90;;;;;;5015695;28;20151;-79
2021/11/25 10:13:54;;;;;;;65.30;32.73;;;2.90;99.90;;;;;;5013348;28;20194;-78
2021/11/25 10:16:28;;;;;;;75.47;36.07;;;2.80;99.90;;;;;;4980585;28;20204;-80
2021/11/25 10:18:54;;;;;;;116.30;60.50;;;2.30;99.90;;;;;;4985464;28;20176;-80
2021/11/25 10:21:24;;;;;;;57.30;28.97;;;2.80;99.90;;;;;;4989630;28;20225;-79
2021/11/25 10:23:51;;;;;;;60.33;29.13;;;2.80;99.90;;;;;;4980141;28;20180;-79
2021/11/25 10:26:26;;;;;;;59.60;29.33;;;2.70;99.90;;;;;;4993143;28;20198;-80
2021/11/25 10:28:58;;;;;;;59.60;29.77;;;2.70;99.90;;;;;;4989300;28;20207;-79
2021/11/25 10:31:25;;;;;;;61.73;30.60;;;2.70;99.90;;;;;;4984511;28;20192;-79
2021/11/25 10:33:55;;;;;;;58.10;29.37;;;2.70;99.90;;;;;;4982982;28;20590;-78
2021/11/25 10:36:33;;;;;;;53.67;27.30;;;2.70;99.90;;;;;;4992625;28;20568;-78
2021/11/25 10:39:08;;;;;;;57.57;28.63;;;2.60;99.90;;;;;;4989435;28;20176;-78
2021/11/25 10:41:36;;;;;;;63.10;29.53;;;2.60;99.90;;;;;;4985469;28;20236;-79
2021/11/25 10:44:15;;;;;;;61.60;30.03;;;3.00;99.90;;;;;;4990548;28;20224;-80
2021/11/25 10:47:10;;;;;;;59.67;29.33;;;2.50;99.90;;;;;;4988634;28;20207;-79
2021/11/25 10:49:48;;;;;;;57.67;28.87;;;2.60;99.90;;;;;;4993863;28;20211;-80
2021/11/25 10:52:22;;;;;;;52.17;27.23;;;2.70;99.90;;;;;;4989352;28;20175;-80
2021/11/25 10:54:57;;;;;;;59.53;29.13;;;2.80;99.90;;;;;;4991613;28;20183;-79
2021/11/25 10:57:34;;;;;;;61.27;30.77;;;2.70;99.90;;;;;;5002801;28;20227;-79
2021/11/25 11:00:07;;;;;;;59.77;30.57;;;2.70;99.90;;;;;;5002500;28;20191;-80
2021/11/25 11:02:32;;;;;;;64.77;30.00;;;2.70;99.90;;;;;;4990788;28;20226;-80
2021/11/25 11:05:02;;;;;;;63.67;33.00;;;3.00;99.90;;;;;;4992465;28;20582;-80
2021/11/25 11:07:37;;;;;;;78.40;37.33;;;2.80;99.90;;;;;;4988166;28;20292;-79
2021/11/25 11:10:29;;;;;;;67.40;33.67;;;2.90;99.90;;;;;;4984115;28;20231;-80
2021/11/25 11:15:32;;;;;;;54.33;27.97;;;3.50;99.90;;;;;;4995189;28;20200;-79
2021/11/25 11:18:42;;;;;;;51.90;26.83;;;2.90;99.90;;;;;;4987402;28;20214;-79
2021/11/25 11:20:49;;;;;;;51.13;27.13;;;2.90;99.90;;;;;;4983711;28;20672;-79
2021/11/25 11:23:22;;;;;;;54.93;28.23;;;2.80;99.90;;;;;;4992331;28;20183;-78
2021/11/25 11:25:50;;;;;;;57.33;29.10;;;3.00;99.90;;;;;;4992721;28;20173;-78
2021/11/25 11:28:16;;;;;;;55.07;27.03;;;3.00;99.90;;;;;;4986642;28;20181;-80
2021/11/25 11:30:44;;;;;;;65.23;31.50;;;2.90;99.90;;;;;;4993398;28;20523;-78
2021/11/25 11:33:12;;;;;;;56.57;28.20;;;3.00;99.90;;;;;;4993149;28;20178;-78
2021/11/25 11:35:40;;;;;;;63.03;29.03;;;3.10;99.90;;;;;;4995453;28;20172;-78
2021/11/25 11:38:06;;;;;;;62.47;29.87;;;3.20;99.90;;;;;;4991216;28;20229;-79
2021/11/25 11:40:34;;;;;;;61.03;29.13;;;3.30;99.90;;;;;;5000613;28;20217;-79
2021/11/25 11:43:01;;;;;;;59.57;29.67;;;3.40;99.90;;;;;;4990685;28;20176;-79
2021/11/25 11:45:29;;;;;;;52.50;26.83;;;3.40;99.90;;;;;;4994851;28;20219;-79
2021/11/25 11:47:58;;;;;;;51.10;27.23;;;3.40;99.90;;;;;;4994598;28;20265;-79
2021/11/25 11:50:36;;;;;;;61.27;29.90;;;3.50;99.90;;;;;;4991953;28;20207;-79
2021/11/25 11:53:13;;;;;;;55.97;27.53;;;3.50;99.90;;;;;;4992938;28;20189;-80
2021/11/25 11:55:46;;;;;;;62.73;30.27;;;3.50;99.90;;;;;;4982084;28;20180;-79
2021/11/25 11:58:23;;;;;;;57.80;30.57;;;3.60;99.90;;;;;;4996139;28;20192;-79
2021/11/25 12:00:51;;;;;;;60.20;30.73;;;3.50;99.90;;;;;;4986733;28;20231;-80
2021/11/25 12:03:34;;;;;;;68.80;32.53;;;3.50;99.90;;;;;;4995813;28;20176;-80
2021/11/25 12:06:00;;;;;;;68.70;33.00;;;3.30;99.90;;;;;;4987940;28;20187;-80
2021/11/25 12:08:28;;;;;;;67.27;34.03;;;3.30;99.90;;;;;;4993179;28;20180;-81
2021/11/25 12:10:59;;;;;;;72.33;33.97;;;3.40;99.90;;;;;;4991493;28;20275;-79
2021/11/25 12:13:49;;;;;;;73.10;35.40;;;3.40;99.90;;;;;;4996184;28;20205;-80
2021/11/25 12:16:18;;;;;;;72.83;35.67;;;3.40;99.90;;;;;;4994163;28;20276;-79
2021/11/25 12:18:54;;;;;;;80.47;39.07;;;3.40;99.90;;;;;;4993882;28;20682;-79
2021/11/25 12:21:37;;;;;;;83.30;39.97;;;3.40;99.90;;;;;;4992464;28;20207;-80
2021/11/25 12:24:16;;;;;;;87.67;41.43;;;3.50;99.90;;;;;;4992705;28;20228;-80
2021/11/25 12:27:05;;;;;;;86.47;40.77;;;3.60;99.90;;;;;;4991009;28;20196;-80
2021/11/25 12:29:55;;;;;;;76.47;37.50;;;3.70;99.90;;;;;;4997577;28;20182;-80
2021/11/25 12:32:36;;;;;;;83.27;38.47;;;3.70;99.90;;;;;;4996272;28;20202;-80
2021/11/25 12:35:11;;;;;;;81.07;37.80;;;3.70;99.90;;;;;;4995755;28;20172;-80
2021/11/25 12:38:00;;;;;;;78.77;36.97;;;3.70;99.90;;;;;;4995717;28;20290;-80
2021/11/25 12:40:26;;;;;;;88.63;40.37;;;3.60;99.90;;;;;;4992831;28;20565;-80
2021/11/25 12:43:08;;;;;;;83.27;37.73;;;3.80;99.90;;;;;;4995305;28;20205;-80
2021/11/25 12:45:40;;;;;;;79.47;36.97;;;3.50;99.90;;;;;;4993755;28;20188;-79